Good Hope, Georgia
Current Conditions -  °F | °C
As of 1:55 AM on Monday 24 Nov 2014 (Local Time) from KWDR Reporting Station
Overcast Overcast  
Wind Chill: 60°   Ceiling: 2500
Heat Index: 60°   Visibility: 10mi
Dew Point: 60°   Wind: 5mph
Humidity: 99%   Direction: 210°SSW
Pressure: 29.79"   Gusts: NA
Location:  33.78°N, 83.61°W
Report Text: KWDR 240655Z AUTO 21004KT 10SM OVC025 16/15 A2979 RMK AO2 T01550154
Loading
Personal Weather Stations






























Interactive Weather Map New forecast layout! Learn more

10-Day Weather Forecast

Advertisements
Track Severe Weather on mobile